Time;durP1;ratioP1;P1;durP2;ratioP2;P2;SDS_P1;SDS_P2;PMS_P1;PMS_P2;Temp;Humidity;BMP_temperature;BMP_pressure;BME280_temperature;BME280_humidity;BME280_pressure;Samples;Min_cycle;Max_cycle;Signal;HPM_P1;HPM_P2
2023/01/11 00:00:32;;;;;;;1.95;1.02;;;;;;;3.68;100.00;95975.06;5095727;28;24441;-73
2023/01/11 00:03:00;;;;;;;5.43;1.50;;;;;;;3.72;100.00;95974.09;5091333;28;24460;-73
2023/01/11 00:05:27;;;;;;;4.97;1.40;;;;;;;3.71;100.00;95963.88;5094713;28;24438;-73
2023/01/11 00:07:54;;;;;;;2.28;1.02;;;;;;;3.67;100.00;95959.75;5103825;28;24519;-73
2023/01/11 00:10:21;;;;;;;4.97;1.30;;;;;;;3.61;100.00;95960.78;5095830;28;24438;-72
2023/01/11 00:12:48;;;;;;;5.55;1.60;;;;;;;3.58;100.00;95961.72;5093353;28;24429;-72
2023/01/11 00:15:16;;;;;;;5.35;1.80;;;;;;;3.55;100.00;95960.97;5097373;28;24434;-73
2023/01/11 00:17:43;;;;;;;6.53;2.00;;;;;;;3.56;100.00;95958.38;5096992;28;24835;-72
2023/01/11 00:20:10;;;;;;;4.10;1.70;;;;;;;3.57;100.00;95948.97;5098530;28;24824;-73
2023/01/11 00:22:37;;;;;;;3.13;1.40;;;;;;;3.62;100.00;95944.53;5089992;28;24471;-72
2023/01/11 00:25:04;;;;;;;3.80;1.58;;;;;;;3.68;100.00;95940.94;5103133;28;24422;-73
2023/01/11 00:27:31;;;;;;;3.78;1.80;;;;;;;3.59;100.00;95940.34;5097003;28;24441;-72
2023/01/11 00:29:57;;;;;;;6.60;2.15;;;;;;;3.55;100.00;95936.19;5090200;28;24430;-73
2023/01/11 00:32:24;;;;;;;4.88;1.67;;;;;;;3.52;100.00;95933.75;5099524;28;24991;-72
2023/01/11 00:34:51;;;;;;;3.55;1.70;;;;;;;3.55;100.00;95927.69;5098052;28;24882;-72
2023/01/11 00:37:18;;;;;;;5.95;2.60;;;;;;;3.57;100.00;95931.03;5088382;28;24439;-72
2023/01/11 00:39:44;;;;;;;3.75;2.05;;;;;;;3.49;100.00;95920.22;5092497;28;24441;-72
2023/01/11 00:47:59;;;;;;;5.82;3.10;;;;;;;3.49;100.00;95910.81;5100986;28;24507;-73
2023/01/11 00:50:29;;;;;;;5.50;2.45;;;;;;;3.50;100.00;95912.47;5086096;28;24541;-72
2023/01/11 00:52:55;;;;;;;3.75;1.90;;;;;;;3.50;100.00;95916.78;5095916;28;24496;-72
2023/01/11 00:55:22;;;;;;;5.80;3.15;;;;;;;3.46;100.00;95913.47;5094985;28;24831;-72
2023/01/11 00:57:48;;;;;;;4.82;3.25;;;;;;;3.54;100.00;95913.22;5102027;28;25222;-72
2023/01/11 01:00:16;;;;;;;4.53;2.53;;;;;;;3.43;100.00;95910.16;5087036;28;24441;-73
2023/01/11 01:02:42;;;;;;;5.10;1.55;;;;;;;3.43;100.00;95910.16;5098691;28;24444;-72
2023/01/11 01:05:09;;;;;;;5.40;2.95;;;;;;;3.30;100.00;95913.13;5098792;28;24706;-72
2023/01/11 01:07:37;;;;;;;3.13;1.47;;;;;;;3.27;100.00;95905.53;5100257;28;24524;-73
2023/01/11 01:10:05;;;;;;;3.83;1.70;;;;;;;3.27;100.00;95918.34;5091116;28;24430;-72
2023/01/11 01:15:17;;;;;;;3.38;1.48;;;;;;;3.30;100.00;95905.47;5092972;28;24533;-72
2023/01/11 01:17:45;;;;;;;2.63;1.00;;;;;;;3.32;100.00;95906.22;5099863;28;24448;-72
2023/01/11 01:20:12;;;;;;;3.08;1.25;;;;;;;3.28;100.00;95896.13;5081438;28;24435;-72
2023/01/11 01:22:40;;;;;;;3.28;1.10;;;;;;;3.25;100.00;95906.47;5089414;28;24441;-72
2023/01/11 01:25:07;;;;;;;3.10;1.10;;;;;;;3.25;100.00;95909.03;5097204;28;24453;-72
2023/01/11 01:27:34;;;;;;;4.65;1.48;;;;;;;3.24;100.00;95902.25;5097894;28;24430;-72
2023/01/11 01:30:00;;;;;;;2.88;1.25;;;;;;;3.28;100.00;95903.81;5088483;28;24434;-72
2023/01/11 01:32:27;;;;;;;4.57;1.48;;;;;;;3.24;100.00;95902.25;5101332;28;24437;-72
2023/01/11 01:34:53;;;;;;;2.17;1.10;;;;;;;3.24;100.00;95895.41;5096713;28;24978;-72
2023/01/11 01:37:19;;;;;;;2.60;1.10;;;;;;;3.33;100.00;95900.22;5101076;28;24437;-72
2023/01/11 01:39:47;;;;;;;5.93;1.13;;;;;;;3.38;100.00;95890.69;5098175;28;24808;-72
2023/01/11 01:42:15;;;;;;;2.57;1.20;;;;;;;3.39;100.00;95900.03;5102726;28;24437;-72
2023/01/11 01:45:03;;;;;;;4.45;1.02;;;;;;;3.53;100.00;95891.06;5099413;28;24454;-72
2023/01/11 01:47:36;;;;;;;1.80;0.90;;;;;;;3.53;100.00;95885.94;5104470;28;25043;-73
2023/01/11 01:50:07;;;;;;;2.47;1.20;;;;;;;3.60;100.00;95885.69;5093229;28;24797;-72
2023/01/11 01:52:35;;;;;;;2.40;0.98;;;;;;;3.56;100.00;95889.25;5103102;28;24441;-73
2023/01/11 01:55:09;;;;;;;2.45;0.90;;;;;;;3.61;100.00;95891.66;5094447;28;24434;-73
2023/01/11 01:57:39;;;;;;;3.13;1.17;;;;;;;3.58;100.00;95891.75;5086460;28;24434;-73
2023/01/11 02:00:09;;;;;;;2.45;0.95;;;;;;;3.57;100.00;95875.53;5084801;28;24443;-72
2023/01/11 02:02:37;;;;;;;3.63;1.50;;;;;;;3.70;100.00;95881.06;5094847;28;24449;-72
2023/01/11 02:05:05;;;;;;;1.92;0.95;;;;;;;3.72;100.00;95863.09;5090771;28;24454;-72
2023/01/11 02:07:34;;;;;;;2.35;1.02;;;;;;;3.77;100.00;95869.72;5097191;28;24466;-73
2023/01/11 02:10:06;;;;;;;2.30;1.00;;;;;;;3.79;100.00;95867.13;5094934;28;24449;-72
2023/01/11 02:12:37;;;;;;;1.63;0.80;;;;;;;3.91;100.00;95864.13;5090484;28;24446;-73
2023/01/11 02:15:05;;;;;;;7.03;1.15;;;;;;;3.89;100.00;95853.09;5083215;28;25060;-73
2023/01/11 02:17:32;;;;;;;2.90;1.00;;;;;;;3.89;100.00;95845.41;5097240;28;24440;-73
2023/01/11 02:20:09;;;;;;;1.65;0.88;;;;;;;3.91;100.00;95843.63;5095357;28;24438;-73
2023/01/11 02:23:20;;;;;;;2.65;1.00;;;;;;;3.97;100.00;95842.56;5095600;28;24795;-71
2023/01/11 02:26:15;;;;;;;4.72;1.40;;;;;;;3.92;100.00;95852.16;5086195;28;24440;-71
2023/01/11 02:28:51;;;;;;;1.58;0.82;;;;;;;3.86;100.00;95836.13;5099436;28;24975;-72
2023/01/11 02:31:27;;;;;;;3.22;1.15;;;;;;;3.88;100.00;95834.31;5093380;28;24796;-71
2023/01/11 02:34:05;;;;;;;2.17;1.00;;;;;;;3.86;100.00;95830.16;5086961;28;24975;-71
2023/01/11 02:36:43;;;;;;;2.83;0.93;;;;;;;3.95;100.00;95824.69;5082398;28;24442;-71
2023/01/11 02:39:17;;;;;;;2.42;0.90;;;;;;;3.89;100.00;95827.47;5093678;28;24440;-72
2023/01/11 02:47:31;;;;;;;5.85;1.30;;;;;;;3.74;100.00;95826.28;5104512;28;24459;-71
2023/01/11 02:50:03;;;;;;;4.18;1.00;;;;;;;3.74;100.00;95820.31;5101951;28;24795;-71
2023/01/11 02:52:36;;;;;;;3.10;1.08;;;;;;;3.79;100.00;95836.41;5088315;28;24456;-71
2023/01/11 02:55:05;;;;;;;2.05;0.90;;;;;;;3.81;100.00;95827.75;5097850;28;25287;-72
2023/01/11 02:57:33;;;;;;;2.53;1.02;;;;;;;3.84;100.00;95829.38;5097392;28;24430;-71
2023/01/11 03:00:01;;;;;;;1.48;0.85;;;;;;;3.84;100.00;95824.25;5101241;28;24441;-71
2023/01/11 03:02:28;;;;;;;2.53;1.00;;;;;;;3.82;100.00;95821.75;5100606;28;25010;-71
2023/01/11 03:04:54;;;;;;;2.03;0.80;;;;;;;3.82;100.00;95819.19;5097583;28;24449;-71
2023/01/11 03:07:38;;;;;;;1.98;1.00;;;;;;;3.88;100.00;95818.13;5101930;27;24445;-72
2023/01/11 03:10:17;;;;;;;2.38;0.95;;;;;;;3.92;100.00;95823.97;5100620;28;24440;-72
2023/01/11 03:12:57;;;;;;;1.40;0.80;;;;;;;3.94;100.00;95823.03;5099022;28;24801;-71
2023/01/11 03:15:49;;;;;;;3.20;0.85;;;;;;;3.99;100.00;95826.25;5099421;28;25013;-72
2023/01/11 03:18:27;;;;;;;2.53;0.95;;;;;;;4.03;100.00;95822.69;5096666;28;24445;-72
2023/01/11 03:21:05;;;;;;;2.60;0.73;;;;;;;3.99;100.00;95817.72;5101973;28;25026;-72
2023/01/11 03:23:37;;;;;;;3.95;0.80;;;;;;;4.07;100.00;95820.84;5083063;28;24442;-72
2023/01/11 03:26:13;;;;;;;2.10;0.90;;;;;;;4.11;100.00;95807.03;5097283;28;24538;-71
2023/01/11 03:28:49;;;;;;;2.88;1.00;;;;;;;4.12;100.00;95801.03;5096713;28;24449;-71
2023/01/11 03:31:22;;;;;;;2.00;0.90;;;;;;;4.08;100.00;95795.19;5088913;28;24443;-71
2023/01/11 03:33:55;;;;;;;1.60;0.70;;;;;;;4.18;100.00;95794.81;5087143;28;24434;-71
2023/01/11 03:36:26;;;;;;;1.10;0.60;;;;;;;4.31;100.00;95796.06;5097424;28;24441;-71
2023/01/11 03:38:58;;;;;;;2.92;0.77;;;;;;;4.59;100.00;95781.25;5084158;28;24437;-71
2023/01/11 03:41:28;;;;;;;3.47;0.90;;;;;;;4.63;100.00;95784.53;5093148;28;24434;-72
2023/01/11 03:43:59;;;;;;;2.65;0.80;;;;;;;4.73;100.00;95780.72;5106085;28;24762;-71
2023/01/11 03:46:31;;;;;;;2.22;0.80;;;;;;;4.69;100.00;95780.91;5097991;28;24445;-72
2023/01/11 03:49:02;;;;;;;1.33;0.57;;;;;;;4.59;100.00;95785.56;5105315;28;24437;-71
2023/01/11 03:51:34;;;;;;;1.38;0.50;;;;;;;4.72;100.00;95770.53;5085081;28;24434;-72
2023/01/11 03:54:08;;;;;;;2.38;0.73;;;;;;;4.59;100.00;95770.16;5097804;28;24434;-71
2023/01/11 03:56:40;;;;;;;1.70;0.60;;;;;;;4.54;100.00;95759.25;5094009;28;24430;-71
2023/01/11 03:59:07;;;;;;;1.85;0.80;;;;;;;4.52;100.00;95768.72;5102544;28;24825;-71
2023/01/11 04:01:35;;;;;;;1.40;0.60;;;;;;;4.50;100.00;95757.72;5085111;28;24442;-71
2023/01/11 04:04:01;;;;;;;2.10;1.00;;;;;;;4.44;100.00;95765.63;5098545;28;24454;-71
2023/01/11 04:06:28;;;;;;;3.05;1.27;;;;;;;4.47;100.00;95752.69;5094323;28;24438;-71
2023/01/11 04:08:55;;;;;;;1.90;0.80;;;;;;;4.43;100.00;95751.16;5097989;28;24536;-72
2023/01/11 04:11:21;;;;;;;3.75;0.90;;;;;;;4.47;100.00;95740.72;5084115;28;24434;-71
2023/01/11 04:13:48;;;;;;;2.85;0.70;;;;;;;4.42;100.00;95737.50;5100257;28;24434;-71
2023/01/11 04:16:14;;;;;;;1.80;0.60;;;;;;;4.42;100.00;95741.78;5090585;28;24446;-71
2023/01/11 04:18:42;;;;;;;2.47;0.73;;;;;;;4.40;100.00;95739.28;5105735;28;24445;-72
2023/01/11 04:21:08;;;;;;;2.28;0.90;;;;;;;4.26;100.00;95757.75;5087758;28;24438;-71
2023/01/11 04:23:35;;;;;;;1.73;0.60;;;;;;;4.23;100.00;95755.31;5088680;28;24442;-72
2023/01/11 04:26:01;;;;;;;1.98;0.60;;;;;;;4.25;100.00;95756.09;5096364;28;24453;-72
2023/01/11 04:28:28;;;;;;;1.58;0.60;;;;;;;4.23;100.00;95757.06;5083934;28;24430;-71
2023/01/11 04:30:55;;;;;;;2.05;0.63;;;;;;;4.24;100.00;95748.47;5092245;28;24445;-70
2023/01/11 04:33:21;;;;;;;1.30;0.60;;;;;;;4.29;100.00;95754.25;5100172;28;24440;-71
2023/01/11 04:35:49;;;;;;;1.88;0.73;;;;;;;4.28;100.00;95760.28;5092904;28;24441;-72
2023/01/11 04:38:16;;;;;;;1.38;0.80;;;;;;;4.30;100.00;95748.22;5098240;28;24513;-72
2023/01/11 04:40:42;;;;;;;2.55;0.70;;;;;;;4.41;100.00;95740.09;5098492;28;24474;-71
2023/01/11 04:43:08;;;;;;;0.95;0.60;;;;;;;4.47;100.00;95730.44;5098457;28;24978;-71
2023/01/11 04:45:34;;;;;;;1.73;0.60;;;;;;;4.51;100.00;95737.13;5091335;28;24454;-72
2023/01/11 04:48:01;;;;;;;1.35;0.60;;;;;;;4.77;100.00;95735.25;5093678;28;25016;-71
2023/01/11 04:50:27;;;;;;;1.42;0.55;;;;;;;4.95;100.00;95731.09;5098931;28;24436;-72
2023/01/11 04:52:55;;;;;;;1.20;0.50;;;;;;;4.80;100.00;95730.00;5101427;28;24452;-72
2023/01/11 04:55:22;;;;;;;0.60;0.30;;;;;;;4.82;100.00;95721.34;5084338;28;24830;-72
2023/01/11 04:57:48;;;;;;;2.10;0.50;;;;;;;4.96;100.00;95723.31;5098182;28;24430;-72
2023/01/11 05:00:15;;;;;;;1.55;0.50;;;;;;;4.94;100.00;95717.44;5097453;28;24437;-71
2023/01/11 05:02:42;;;;;;;1.30;0.45;;;;;;;4.88;100.00;95719.41;5095633;28;24431;-72
2023/01/11 05:05:10;;;;;;;0.55;0.30;;;;;;;4.88;100.00;95724.56;5097134;28;24820;-72
2023/01/11 05:07:37;;;;;;;1.73;0.60;;;;;;;4.84;100.00;95716.16;5100139;28;24438;-73
2023/01/11 05:10:06;;;;;;;1.53;0.40;;;;;;;4.90;100.00;95713.34;5097265;28;24440;-71
2023/01/11 05:12:33;;;;;;;1.83;0.80;;;;;;;4.80;100.00;95706.91;5096041;28;24827;-72
2023/01/11 05:14:59;;;;;;;1.80;0.45;;;;;;;4.76;100.00;95706.19;5086474;28;24792;-72
2023/01/11 05:17:25;;;;;;;4.75;2.67;;;;;;;4.73;100.00;95714.00;5094095;28;24445;-72
2023/01/11 05:19:52;;;;;;;5.68;2.83;;;;;;;4.78;100.00;95711.25;5102154;28;24445;-71
2023/01/11 05:22:18;;;;;;;2.88;2.35;;;;;;;4.74;100.00;95713.09;5092851;28;24445;-72
2023/01/11 05:24:45;;;;;;;1.90;1.30;;;;;;;4.72;100.00;95725.19;5082188;28;24454;-72
2023/01/11 05:27:13;;;;;;;2.10;1.17;;;;;;;4.73;100.00;95723.44;5103543;28;24452;-73
2023/01/11 05:29:39;;;;;;;1.02;0.60;;;;;;;4.75;100.00;95713.97;5092949;28;24430;-72
2023/01/11 05:32:06;;;;;;;1.23;0.45;;;;;;;4.82;100.00;95715.34;5101921;28;24441;-73
2023/01/11 05:34:32;;;;;;;2.25;0.60;;;;;;;4.87;100.00;95725.47;5098414;28;24434;-72
2023/01/11 05:36:58;;;;;;;0.73;0.50;;;;;;;4.83;100.00;95722.19;5086902;27;24438;-72
2023/01/11 05:39:25;;;;;;;0.90;0.50;;;;;;;4.84;100.00;95721.28;5080647;28;25034;-72
2023/01/11 05:41:52;;;;;;;0.75;0.40;;;;;;;4.96;100.00;95713.06;5097007;28;24841;-72
2023/01/11 05:47:04;;;;;;;3.72;0.50;;;;;;;5.05;100.00;95709.28;5092601;28;24445;-72
2023/01/11 05:49:30;;;;;;;1.38;0.45;;;;;;;5.20;100.00;95711.22;5091888;28;24506;-73
2023/01/11 05:51:57;;;;;;;1.00;0.50;;;;;;;5.29;100.00;95703.09;5086966;28;25051;-71
2023/01/11 05:54:23;;;;;;;0.50;0.20;;;;;;;5.26;100.00;95681.84;5096871;28;24434;-71
2023/01/11 05:56:49;;;;;;;1.50;0.50;;;;;;;5.49;100.00;95676.56;5079131;28;24430;-72
2023/01/11 05:59:16;;;;;;;0.82;0.30;;;;;;;5.48;100.00;95677.44;5086937;28;24457;-71
2023/01/11 06:01:44;;;;;;;0.68;0.50;;;;;;;5.83;100.00;95662.19;5091069;28;24446;-72
2023/01/11 06:04:10;;;;;;;5.17;0.53;;;;;;;5.71;100.00;95667.88;5093062;28;24450;-71
2023/01/11 06:06:37;;;;;;;1.08;0.50;;;;;;;5.61;100.00;95676.91;5099474;28;24457;-71
2023/01/11 06:09:03;;;;;;;0.93;0.50;;;;;;;5.59;100.00;95682.94;5097071;28;24433;-71
2023/01/11 06:11:30;;;;;;;1.98;0.73;;;;;;;5.58;100.00;95685.59;5098822;28;24422;-71
2023/01/11 06:13:56;;;;;;;1.67;0.80;;;;;;;5.50;100.00;95685.09;5075148;28;24457;-72
2023/01/11 06:16:23;;;;;;;1.33;0.80;;;;;;;5.47;100.00;95686.06;5078708;28;24445;-72
2023/01/11 06:18:52;;;;;;;2.15;0.90;;;;;;;5.42;100.00;95679.47;5101197;28;24788;-71
2023/01/11 06:21:19;;;;;;;1.35;0.70;;;;;;;5.33;100.00;95673.81;5094569;28;24437;-72
2023/01/11 06:23:49;;;;;;;0.80;0.50;;;;;;;5.33;100.00;95675.56;5095439;28;24437;-72
2023/01/11 06:26:17;;;;;;;0.80;0.50;;;;;;;5.23;100.00;95666.59;5101353;28;24449;-72
2023/01/11 06:28:44;;;;;;;5.93;1.20;;;;;;;5.14;100.00;95662.69;5088862;28;24454;-71
2023/01/11 06:31:11;;;;;;;1.55;0.90;;;;;;;5.13;100.00;95662.75;5074126;28;24430;-71
2023/01/11 06:33:38;;;;;;;1.50;1.00;;;;;;;5.10;100.00;95661.16;5077540;28;21149;-71
2023/01/11 06:36:08;;;;;;;1.60;1.13;;;;;;;5.13;100.00;95666.16;5101360;28;25088;-73
2023/01/11 06:38:35;;;;;;;2.75;1.70;;;;;;;5.21;100.00;95664.09;5097874;28;24430;-71
2023/01/11 06:41:03;;;;;;;3.45;1.83;;;;;;;5.16;100.00;95665.19;5101326;28;24425;-71
2023/01/11 06:43:31;;;;;;;2.20;1.37;;;;;;;5.19;100.00;95667.63;5096770;28;25059;-72
2023/01/11 06:45:58;;;;;;;3.75;1.83;;;;;;;5.15;100.00;95664.34;5100997;28;24476;-73
2023/01/11 06:48:27;;;;;;;2.13;1.20;;;;;;;5.20;100.00;95675.25;5099126;28;25032;-72
2023/01/11 06:50:55;;;;;;;3.45;1.70;;;;;;;5.16;100.00;95672.91;5077284;28;24441;-71
2023/01/11 06:53:24;;;;;;;2.22;1.38;;;;;;;5.24;100.00;95663.13;5104087;28;24430;-72
2023/01/11 06:55:52;;;;;;;4.93;1.02;;;;;;;5.33;100.00;95660.97;5082595;28;24426;-72
2023/01/11 06:58:19;;;;;;;2.35;0.90;;;;;;;5.29;100.00;95656.88;5103247;28;24436;-72
2023/01/11 07:00:46;;;;;;;1.93;0.73;;;;;;;5.28;100.00;95656.97;5096446;28;24441;-72
2023/01/11 07:03:12;;;;;;;1.10;0.70;;;;;;;5.34;100.00;95646.44;5103076;28;24450;-72
2023/01/11 07:05:41;;;;;;;1.02;0.80;;;;;;;5.33;100.00;95643.00;5098739;28;24522;-72
2023/01/11 07:08:07;;;;;;;2.03;0.90;;;;;;;5.27;100.00;95648.44;5095462;28;24801;-71
2023/01/11 07:10:35;;;;;;;1.70;1.00;;;;;;;5.41;100.00;95645.22;5095999;28;24433;-71
2023/01/11 07:13:02;;;;;;;1.92;0.90;;;;;;;5.31;100.00;95638.84;5094193;28;24441;-72
2023/01/11 07:15:28;;;;;;;1.30;0.70;;;;;;;5.30;100.00;95634.59;5099087;28;24440;-72
2023/01/11 07:17:55;;;;;;;2.60;0.80;;;;;;;5.63;100.00;95639.13;5092721;28;24441;-72
2023/01/11 07:20:22;;;;;;;2.05;0.88;;;;;;;5.47;100.00;95626.16;5098363;28;24422;-71
2023/01/11 07:22:49;;;;;;;1.55;0.90;;;;;;;5.47;100.00;95632.13;5091799;28;24526;-72
2023/01/11 07:25:15;;;;;;;1.03;0.83;;;;;;;5.45;100.00;95633.09;5095059;28;24456;-72
2023/01/11 07:27:43;;;;;;;2.40;0.70;;;;;;;5.42;100.00;95640.94;5096902;28;24796;-71
2023/01/11 07:30:10;;;;;;;1.65;1.02;;;;;;;5.38;100.00;95647.97;5099557;28;24441;-71
2023/01/11 07:32:37;;;;;;;1.80;1.00;;;;;;;5.33;100.00;95650.72;5100992;28;24442;-72
2023/01/11 07:35:04;;;;;;;1.88;1.00;;;;;;;5.31;100.00;95657.66;5095721;28;24490;-71
2023/01/11 07:37:31;;;;;;;2.70;1.30;;;;;;;5.38;100.00;95645.38;5083587;28;24449;-71
2023/01/11 07:39:57;;;;;;;1.98;1.15;;;;;;;5.36;100.00;95639.47;5095229;28;24441;-71
2023/01/11 07:45:11;;;;;;;1.73;0.82;;;;;;;5.42;100.00;95626.38;5089408;28;25018;-72
2023/01/11 07:47:37;;;;;;;2.40;1.10;;;;;;;5.40;100.00;95629.91;5084376;28;24433;-72
2023/01/11 07:50:04;;;;;;;1.15;0.90;;;;;;;5.37;100.00;95627.47;5102040;28;24437;-72
2023/01/11 07:52:31;;;;;;;2.00;0.90;;;;;;;5.40;100.00;95635.88;5087088;28;25010;-72
2023/01/11 07:55:01;;;;;;;3.33;1.30;;;;;;;5.43;100.00;95637.47;5104159;28;24978;-72
2023/01/11 07:57:27;;;;;;;1.55;0.93;;;;;;;5.55;100.00;95637.75;5102192;28;24526;-73
2023/01/11 07:59:54;;;;;;;1.75;0.95;;;;;;;5.60;100.00;95635.00;5104361;28;24433;-73
2023/01/11 08:02:21;;;;;;;2.40;1.00;;;;;;;5.70;100.00;95637.94;5096943;28;24445;-72
2023/01/11 08:04:48;;;;;;;1.35;0.70;;;;;;;5.70;100.00;95650.81;5103668;28;25005;-73
2023/01/11 08:07:14;;;;;;;2.42;1.00;;;;;;;5.85;100.00;95649.25;5104030;28;24520;-73
2023/01/11 08:09:41;;;;;;;2.05;0.60;;;;;;;5.80;100.00;95647.75;5097130;28;24972;-72
2023/01/11 08:14:51;;;;;;;1.77;0.73;;;;;;;5.79;100.00;95629.84;5091623;28;24460;-73
2023/01/11 08:17:18;;;;;;;1.05;0.70;;;;;;;5.98;100.00;95627.28;5104335;28;24425;-73
2023/01/11 08:19:46;;;;;;;1.45;0.68;;;;;;;5.99;100.00;95626.38;5112679;28;24428;-73
2023/01/11 08:22:12;;;;;;;1.00;0.50;;;;;;;6.04;100.00;95625.25;5107315;28;24434;-73
2023/01/11 08:24:38;;;;;;;1.30;0.63;;;;;;;6.06;100.00;95620.84;5083596;28;25015;-74
2023/01/11 08:27:05;;;;;;;2.03;0.77;;;;;;;6.10;100.00;95613.84;5083961;28;24454;-73
2023/01/11 08:29:32;;;;;;;3.13;0.93;;;;;;;6.10;100.00;95620.72;5087845;28;24431;-72
2023/01/11 08:31:59;;;;;;;1.45;0.70;;;;;;;6.10;100.00;95631.00;5091033;28;24789;-72
2023/01/11 08:34:26;;;;;;;4.40;0.90;;;;;;;6.04;100.00;95630.41;5092726;28;24986;-74
2023/01/11 08:36:55;;;;;;;0.80;0.50;;;;;;;6.10;100.00;95629.25;5094523;28;24487;-72
2023/01/11 08:39:21;;;;;;;1.60;0.82;;;;;;;6.16;100.00;95641.00;5088136;28;25029;-73
2023/01/11 08:41:48;;;;;;;1.27;0.80;;;;;;;6.14;100.00;95648.78;5076040;28;24442;-73
2023/01/11 08:44:15;;;;;;;1.20;0.60;;;;;;;6.11;100.00;95646.34;5084797;28;24430;-73
2023/01/11 08:46:42;;;;;;;1.60;0.95;;;;;;;6.06;100.00;95651.72;5085893;28;24451;-73
2023/01/11 08:49:11;;;;;;;1.10;0.60;;;;;;;6.13;100.00;95646.28;5078980;28;24445;-71
2023/01/11 08:51:38;;;;;;;1.00;0.60;;;;;;;6.13;100.00;95646.28;5084676;28;24481;-72
2023/01/11 08:54:08;;;;;;;1.60;0.75;;;;;;;6.08;100.00;95641.34;5089816;28;25034;-72
2023/01/11 08:56:35;;;;;;;1.80;0.88;;;;;;;6.07;100.00;95637.94;5089902;28;24479;-71
2023/01/11 08:59:01;;;;;;;2.25;0.70;;;;;;;6.14;100.00;95643.63;5091236;28;24430;-72
2023/01/11 09:01:28;;;;;;;2.22;1.13;;;;;;;6.15;100.00;95644.47;5075883;28;24470;-71
2023/01/11 09:03:54;;;;;;;1.58;0.90;;;;;;;6.19;100.00;95649.41;5082099;28;24960;-72
2023/01/11 09:06:21;;;;;;;0.80;0.57;;;;;;;6.23;100.00;95642.34;5087907;28;24983;-71
2023/01/11 09:08:48;;;;;;;1.65;0.80;;;;;;;6.21;100.00;95644.19;5100992;28;24518;-72
2023/01/11 09:13:56;;;;;;;1.70;0.80;;;;;;;6.44;100.00;95658.50;5095364;28;24514;-73
2023/01/11 09:16:23;;;;;;;1.85;1.00;;;;;;;6.48;100.00;95650.56;5094686;28;24433;-73
2023/01/11 09:18:49;;;;;;;1.75;0.90;;;;;;;6.45;100.00;95655.88;5103657;28;24429;-72
2023/01/11 09:21:16;;;;;;;2.28;0.95;;;;;;;6.48;100.00;95650.56;5101660;28;24548;-73
2023/01/11 09:23:44;;;;;;;2.13;0.83;;;;;;;6.49;100.00;95648.84;5095765;28;24451;-71
2023/01/11 09:26:10;;;;;;;1.40;0.80;;;;;;;6.56;100.00;95647.59;5100641;28;20826;-73
2023/01/11 09:28:38;;;;;;;1.02;0.60;;;;;;;6.57;100.00;95640.75;5099689;28;24429;-72
2023/01/11 09:31:05;;;;;;;1.30;0.60;;;;;;;6.61;100.00;95643.09;5086422;28;24461;-72
2023/01/11 09:33:33;;;;;;;2.00;0.63;;;;;;;6.63;100.00;95646.41;5084870;28;25066;-71
2023/01/11 09:36:01;;;;;;;2.40;0.60;;;;;;;6.66;100.00;95650.56;5101655;28;24432;-71
2023/01/11 09:38:29;;;;;;;1.70;0.70;;;;;;;6.71;100.00;95653.75;5101726;28;24519;-72
2023/01/11 09:41:04;;;;;;;0.75;0.50;;;;;;;6.81;100.00;95659.28;5082490;28;24442;-71
2023/01/11 09:43:30;;;;;;;1.55;0.90;;;;;;;6.74;100.00;95658.75;5078061;28;24445;-71
2023/01/11 09:46:05;;;;;;;2.63;1.65;;;;;;;6.77;100.00;95658.59;5099728;28;24449;-71
2023/01/11 09:48:36;;;;;;;2.40;1.38;;;;;;;6.79;100.00;95662.78;5080437;28;24446;-71
2023/01/11 09:51:04;;;;;;;4.93;2.95;;;;;;;6.93;100.00;95668.97;5091303;28;24434;-72
2023/01/11 09:53:36;;;;;;;3.60;2.22;;;;;;;6.90;100.00;95661.41;5086032;28;21394;-72
2023/01/11 09:56:06;;;;;;;1.85;1.08;;;;;;;6.86;100.00;95668.47;5098156;28;24433;-72
2023/01/11 09:58:49;;;;;;;3.23;0.60;;;;;;;7.02;100.00;95664.19;5100476;28;24430;-72
2023/01/11 10:01:22;;;;;;;2.28;0.90;;;;;;;7.02;100.00;95656.47;5101922;28;24838;-71
2023/01/11 10:04:35;;;;;;;1.00;0.60;;;;;;;7.10;100.00;95652.66;5098294;28;20785;-72
2023/01/11 10:07:31;;;;;;;1.02;0.68;;;;;;;7.21;100.00;95658.09;5076897;28;24511;-71
2023/01/11 10:10:12;;;;;;;1.92;0.60;;;;;;;7.16;100.00;95655.78;5100202;27;20677;-71
2023/01/11 10:12:45;;;;;;;3.50;0.60;;;;;;;7.40;100.00;95658.00;5098676;28;24552;-70
2023/01/11 10:15:20;;;;;;;1.20;0.80;;;;;;;7.25;100.00;95655.28;5099935;28;24457;-72
2023/01/11 10:18:03;;;;;;;3.50;0.57;;;;;;;7.36;100.00;95649.59;5101437;28;20756;-71
2023/01/11 10:20:37;;;;;;;1.45;0.50;;;;;;;7.41;100.00;95654.50;5096758;28;20808;-73
2023/01/11 10:23:11;;;;;;;2.33;0.82;;;;;;;7.42;100.00;95657.00;5084165;28;24450;-73
2023/01/11 10:25:46;;;;;;;0.88;0.60;;;;;;;7.45;100.00;95656.84;5091744;28;20655;-73
2023/01/11 10:28:21;;;;;;;1.63;1.27;;;;;;;7.39;100.00;95646.84;5084570;28;20805;-73
2023/01/11 10:31:06;;;;;;;1.70;1.00;;;;;;;7.46;100.00;95653.34;5091521;28;20651;-73
2023/01/11 10:34:08;;;;;;;1.60;0.60;;;;;;;7.51;100.00;95651.34;5088798;28;24443;-73
2023/01/11 10:36:58;;;;;;;1.90;0.80;;;;;;;7.59;100.00;95650.94;5078584;28;24683;-73
2023/01/11 10:39:49;;;;;;;0.70;0.50;;;;;;;7.64;100.00;95659.28;5089855;28;24431;-73
2023/01/11 10:42:20;;;;;;;1.10;0.80;;;;;;;7.63;100.00;95651.63;5081503;28;20734;-73
2023/01/11 10:44:54;;;;;;;0.77;0.60;;;;;;;7.60;100.00;95660.38;5079815;28;24808;-73
2023/01/11 10:47:26;;;;;;;2.83;0.70;;;;;;;7.65;100.00;95645.47;5093594;28;20701;-73
2023/01/11 10:49:59;;;;;;;1.38;0.57;;;;;;;7.56;100.00;95648.53;5101134;28;21115;-73
2023/01/11 10:52:34;;;;;;;0.90;0.43;;;;;;;7.64;100.00;95651.56;5094213;28;20745;-73
2023/01/11 10:55:11;;;;;;;1.50;0.75;;;;;;;7.65;100.00;95660.13;5085650;28;20653;-73
2023/01/11 10:57:52;;;;;;;2.45;0.52;;;;;;;7.76;100.00;95657.81;5098588;28;20767;-73
2023/01/11 11:00:26;;;;;;;1.27;0.50;;;;;;;7.73;100.00;95656.22;5100309;28;21144;-73
2023/01/11 11:03:15;;;;;;;0.85;0.55;;;;;;;7.69;100.00;95652.13;5089031;28;24446;-74
2023/01/11 11:05:51;;;;;;;0.50;0.40;;;;;;;7.80;100.00;95648.97;5090171;28;24437;-73
2023/01/11 11:08:27;;;;;;;0.40;0.30;;;;;;;7.84;100.00;95644.50;5104188;28;20719;-73
2023/01/11 11:11:00;;;;;;;1.40;0.40;;;;;;;7.85;100.00;95648.72;5098890;28;20710;-73
2023/01/11 11:13:39;;;;;;;0.40;0.30;;;;;;;7.82;100.00;95636.00;5095410;28;25037;-73
2023/01/11 11:16:14;;;;;;;0.47;0.20;;;;;;;7.88;100.00;95640.84;5091969;28;20742;-73
2023/01/11 11:18:43;;;;;;;1.70;0.50;;;;;;;7.88;100.00;95636.50;5100182;28;20778;-73
2023/01/11 11:21:20;;;;;;;1.15;0.45;;;;;;;7.81;100.00;95635.16;5075081;28;20803;-73
2023/01/11 11:23:53;;;;;;;0.70;0.47;;;;;;;7.96;100.00;95633.50;5076662;28;20807;-74
2023/01/11 11:26:21;;;;;;;1.80;0.57;;;;;;;7.88;100.00;95627.94;5079343;28;20717;-72
2023/01/11 11:29:00;;;;;;;2.08;0.90;;;;;;;7.91;100.00;95627.78;5081449;28;25009;-73
2023/01/11 11:31:28;;;;;;;1.02;0.70;;;;;;;7.89;100.00;95630.41;5104446;28;20804;-73
2023/01/11 11:33:54;;;;;;;3.15;0.95;;;;;;;7.87;100.00;95632.28;5097745;27;20810;-73
2023/01/11 11:36:24;;;;;;;1.20;0.80;;;;;;;7.89;100.00;95633.00;5104762;28;24425;-73
2023/01/11 11:39:04;;;;;;;0.80;0.80;;;;;;;7.91;100.00;95625.19;5102754;28;21130;-73
2023/01/11 11:41:46;;;;;;;5.22;1.42;;;;;;;7.91;100.00;95626.03;5106566;28;21199;-73
2023/01/11 11:44:17;;;;;;;1.33;1.02;;;;;;;7.91;100.00;95620.88;5100491;28;20753;-72
2023/01/11 11:46:56;;;;;;;2.07;1.40;;;;;;;8.00;100.00;95622.94;5105386;28;20772;-72
2023/01/11 11:49:22;;;;;;;1.70;1.30;;;;;;;8.10;100.00;95622.44;5095468;28;25157;-73
2023/01/11 11:51:51;;;;;;;3.38;2.00;;;;;;;8.06;100.00;95626.09;5093054;28;24445;-73
2023/01/11 11:54:22;;;;;;;4.78;3.30;;;;;;;8.05;100.00;95622.69;5088384;28;24530;-73
2023/01/11 11:56:49;;;;;;;4.85;3.10;;;;;;;8.05;100.00;95622.69;5107153;28;20829;-73
2023/01/11 11:59:19;;;;;;;1.25;0.70;;;;;;;8.08;100.00;95621.69;5088501;28;20781;-71
2023/01/11 12:01:49;;;;;;;1.40;0.50;;;;;;;8.05;100.00;95624.44;5099838;28;20910;-71
2023/01/11 12:04:18;;;;;;;1.45;0.52;;;;;;;8.03;100.00;95610.81;5098045;28;21323;-72
2023/01/11 12:06:46;;;;;;;0.60;0.50;;;;;;;7.94;100.00;95615.56;5106414;28;20826;-73
2023/01/11 12:09:26;;;;;;;2.33;0.90;;;;;;;8.02;100.00;95617.72;5100358;28;20758;-74
2023/01/11 12:11:52;;;;;;;1.48;1.25;;;;;;;7.95;100.00;95624.94;5083190;28;20657;-72